Time;durP1;ratioP1;P1;durP2;ratioP2;P2;SDS_P1;SDS_P2;PMS_P1;PMS_P2;Temp;Humidity;BMP_temperature;BMP_pressure;BME280_temperature;BME280_humidity;BME280_pressure;Samples;Min_cycle;Max_cycle;Signal;HPM_P1;HPM_P2
2023/09/08 00:01:16;;;;;;;3.25;1.55;;;;;;;19.67;55.77;100232.50;4475439;32;33847;-78
2023/09/08 00:03:45;;;;;;;3.92;1.60;;;;;;;19.41;56.51;100223.06;4474929;32;33795;-79
2023/09/08 00:06:14;;;;;;;2.95;1.75;;;;;;;19.35;56.95;100228.56;4480097;32;34209;-78
2023/09/08 00:08:43;;;;;;;2.62;1.58;;;;;;;19.18;57.64;100234.50;4472351;32;32186;-78
2023/09/08 00:11:12;;;;;;;2.72;1.58;;;;;;;19.27;57.54;100231.50;4473511;32;34486;-79
2023/09/08 00:13:41;;;;;;;3.00;1.40;;;;;;;19.43;57.10;100228.28;4473957;32;34627;-79
2023/09/08 00:16:10;;;;;;;2.87;1.70;;;;;;;19.45;56.92;100227.28;4472641;32;34016;-79
2023/09/08 00:18:41;;;;;;;3.28;1.42;;;;;;;19.40;57.31;100234.50;4471735;32;33541;-79
2023/09/08 00:21:10;;;;;;;2.17;1.13;;;;;;;19.23;57.86;100234.31;4469362;32;33251;-78
2023/09/08 00:23:39;;;;;;;3.12;1.60;;;;;;;19.52;57.11;100227.88;4473025;32;33555;-78
2023/09/08 00:26:08;;;;;;;3.33;1.83;;;;;;;19.42;57.20;100237.91;4474787;32;33889;-78
2023/09/08 00:28:36;;;;;;;2.15;1.33;;;;;;;19.48;57.02;100242.94;4468973;32;34151;-80
2023/09/08 00:31:06;;;;;;;3.10;1.40;;;;;;;19.46;57.05;100239.53;4470504;32;34037;-78
2023/09/08 00:33:37;;;;;;;1.60;1.25;;;;;;;19.34;57.54;100232.12;4472446;32;34176;-79
2023/09/08 00:36:07;;;;;;;3.72;1.52;;;;;;;19.38;57.39;100237.22;4471634;32;33028;-78
2023/09/08 00:38:36;;;;;;;3.53;1.35;;;;;;;19.40;57.24;100229.22;4478771;32;34754;-79
2023/09/08 00:41:06;;;;;;;2.83;1.17;;;;;;;19.44;57.43;100230.81;4469077;32;33702;-78
2023/09/08 00:43:35;;;;;;;1.98;1.23;;;;;;;19.29;57.67;100228.84;4474010;32;33628;-79
2023/09/08 00:46:04;;;;;;;3.45;1.60;;;;;;;19.44;57.15;100222.94;4469076;32;34233;-78
2023/09/08 00:48:34;;;;;;;2.87;1.60;;;;;;;19.22;57.82;100220.31;4478816;32;34402;-80
2023/09/08 00:51:05;;;;;;;4.78;1.95;;;;;;;19.30;57.66;100220.84;4471379;32;34684;-79
2023/09/08 00:53:35;;;;;;;2.53;1.48;;;;;;;19.25;57.86;100221.97;4469669;32;33696;-78
2023/09/08 00:56:05;;;;;;;3.00;1.37;;;;;;;19.40;57.40;100218.69;4469245;32;33553;-78
2023/09/08 00:58:34;;;;;;;3.77;1.67;;;;;;;19.28;57.45;100212.19;4471053;32;34537;-78
2023/09/08 01:01:22;;;;;;;3.28;1.83;;;;;;;19.32;57.60;100210.28;4476341;32;34622;-79
2023/09/08 01:03:51;;;;;;;5.50;1.83;;;;;;;19.26;57.84;100205.28;4471037;32;33534;-79
2023/09/08 01:06:20;;;;;;;2.72;1.62;;;;;;;19.36;57.43;100207.47;4452062;32;32934;-79
2023/09/08 01:08:50;;;;;;;4.35;1.62;;;;;;;19.19;58.17;100213.41;4471090;32;34288;-78
2023/09/08 01:11:21;;;;;;;3.10;1.77;;;;;;;19.29;57.62;100200.75;4472545;32;33902;-78
2023/09/08 01:13:49;;;;;;;3.03;1.27;;;;;;;19.17;58.12;100202.09;4479177;31;33716;-80
2023/09/08 01:16:18;;;;;;;2.78;1.42;;;;;;;19.22;58.20;100206.31;4472730;32;33273;-78
2023/09/08 01:18:49;;;;;;;1.77;1.12;;;;;;;19.23;58.36;100208.03;4473153;32;33710;-79
2023/09/08 01:21:38;;;;;;;1.87;1.17;;;;;;;19.14;58.65;100212.75;4467713;32;33737;-79
2023/09/08 01:24:22;;;;;;;2.40;1.65;;;;;;;19.03;58.84;100201.78;4474245;32;34869;-79
2023/09/08 01:26:53;;;;;;;1.25;1.00;;;;;;;19.15;58.47;100205.72;4471705;32;33831;-79
2023/09/08 01:29:23;;;;;;;;;;;;;;;19.24;58.32;100196.59;4477253;32;34208;-79
2023/09/08 01:31:52;;;;;;;1.87;1.35;;;;;;;19.06;58.77;100201.66;4474991;32;34565;-78
2023/09/08 01:34:20;;;;;;;4.68;1.50;;;;;;;19.10;58.78;100200.63;4468199;31;34447;-78
2023/09/08 01:36:53;;;;;;;2.28;1.45;;;;;;;19.03;59.07;100193.06;4466566;32;32900;-78
2023/09/08 01:39:22;;;;;;;1.92;1.12;;;;;;;19.22;58.43;100194.03;4471082;32;34589;-78
2023/09/08 01:41:52;;;;;;;2.92;1.58;;;;;;;19.15;58.58;100189.94;4470053;32;34464;-78
2023/09/08 01:44:21;;;;;;;2.50;1.27;;;;;;;19.19;58.49;100192.38;4475148;32;34366;-78
2023/09/08 01:46:56;;;;;;;2.17;1.20;;;;;;;19.08;58.72;100194.56;4471650;32;33790;-78
2023/09/08 01:49:25;;;;;;;3.67;2.08;;;;;;;19.06;58.74;100198.19;4467629;32;33148;-78
2023/09/08 01:51:54;;;;;;;2.90;1.70;;;;;;;19.01;59.01;100192.25;4463339;32;34113;-79
2023/09/08 01:54:23;;;;;;;2.53;1.37;;;;;;;19.02;59.34;100191.34;4469704;32;33634;-78
2023/09/08 01:56:53;;;;;;;3.30;1.60;;;;;;;19.01;59.44;100190.47;4469129;32;32935;-78
2023/09/08 01:59:22;;;;;;;3.70;1.70;;;;;;;19.06;59.15;100188.50;4468827;32;34142;-78
2023/09/08 02:01:50;;;;;;;4.85;1.92;;;;;;;19.03;59.17;100190.44;4465766;32;33475;-79
2023/09/08 02:04:20;;;;;;;2.25;1.33;;;;;;;18.93;59.39;100192.56;4459870;32;33786;-78
2023/09/08 02:06:48;;;;;;;2.53;1.40;;;;;;;18.99;59.55;100189.69;4459241;32;33045;-78
2023/09/08 02:09:17;;;;;;;3.28;1.75;;;;;;;18.87;59.98;100188.41;4472061;32;33399;-77
2023/09/08 02:11:46;;;;;;;3.72;1.30;;;;;;;18.86;60.18;100188.47;4472576;32;33645;-79
2023/09/08 02:14:16;;;;;;;3.45;1.52;;;;;;;18.78;60.51;100187.91;4467267;32;33984;-78
2023/09/08 02:16:45;;;;;;;4.15;1.70;;;;;;;18.90;60.41;100190.06;4476334;31;34567;-78
2023/09/08 02:19:14;;;;;;;3.58;1.50;;;;;;;18.84;60.20;100192.91;4466639;32;33556;-78
2023/09/08 02:21:43;;;;;;;3.33;1.67;;;;;;;18.92;59.82;100191.72;4473548;32;34698;-77
2023/09/08 02:24:12;;;;;;;3.28;1.65;;;;;;;18.86;60.28;100191.09;4468807;32;33967;-79
2023/09/08 02:26:44;;;;;;;2.55;1.50;;;;;;;18.82;60.13;100192.97;4467737;32;33130;-79
2023/09/08 02:29:13;;;;;;;2.40;1.37;;;;;;;18.84;60.25;100195.56;4473403;32;34558;-78
2023/09/08 02:31:44;;;;;;;3.67;1.37;;;;;;;18.83;60.08;100191.22;4465474;32;34167;-79
2023/09/08 02:34:13;;;;;;;2.50;1.35;;;;;;;18.84;60.28;100188.50;4472090;32;33937;-79
2023/09/08 02:36:42;;;;;;;3.00;1.30;;;;;;;18.91;60.08;100183.88;4469544;32;33017;-78
2023/09/08 02:39:11;;;;;;;4.00;1.60;;;;;;;18.92;60.47;100188.25;4463800;32;34449;-78
2023/09/08 02:41:40;;;;;;;4.65;1.83;;;;;;;18.82;60.64;100192.13;4472636;32;33705;-78
2023/09/08 02:44:09;;;;;;;4.10;1.70;;;;;;;18.81;60.86;100190.41;4470418;32;34024;-79
2023/09/08 02:46:38;;;;;;;3.40;1.40;;;;;;;18.84;60.80;100193.78;4462258;32;33619;-79
2023/09/08 02:49:08;;;;;;;3.17;1.45;;;;;;;19.02;60.33;100191.34;4460387;32;33782;-79
2023/09/08 02:51:37;;;;;;;4.20;1.90;;;;;;;19.07;59.89;100202.53;4460528;32;33767;-77
2023/09/08 02:54:07;;;;;;;2.55;1.35;;;;;;;19.07;59.72;100190.25;4466091;32;33556;-79
2023/09/08 02:56:36;;;;;;;3.08;1.73;;;;;;;19.04;59.80;100194.75;4469426;32;32754;-78
2023/09/08 02:59:05;;;;;;;2.62;1.45;;;;;;;18.84;60.08;100199.03;4463641;32;33924;-79
2023/09/08 03:01:33;;;;;;;4.37;1.92;;;;;;;18.80;60.35;100192.19;4460228;32;33594;-77
2023/09/08 03:04:04;;;;;;;1.45;1.27;;;;;;;18.83;60.28;100197.34;4468954;32;33124;-79
2023/09/08 03:06:36;;;;;;;2.72;1.27;;;;;;;18.66;60.93;100191.84;4472165;32;33720;-78
2023/09/08 03:09:05;;;;;;;2.35;1.45;;;;;;;18.66;60.72;100192.69;4469544;32;34246;-78
2023/09/08 03:11:33;;;;;;;3.12;2.00;;;;;;;18.79;60.39;100200.13;4458983;32;33805;-78
2023/09/08 03:14:02;;;;;;;4.03;1.67;;;;;;;18.61;61.03;100202.53;4462955;32;34695;-79
2023/09/08 03:16:31;;;;;;;3.90;1.75;;;;;;;18.48;61.35;100203.91;4465316;32;32516;-78
2023/09/08 03:19:00;;;;;;;2.80;1.40;;;;;;;18.51;61.17;100194.16;4459625;32;34184;-79
2023/09/08 03:21:29;;;;;;;4.45;1.55;;;;;;;18.67;60.72;100198.81;4459472;32;33752;-79
2023/09/08 03:23:59;;;;;;;2.75;1.67;;;;;;;18.33;61.55;100203.53;4458712;32;33759;-78
2023/09/08 03:26:28;;;;;;;2.10;1.37;;;;;;;18.52;61.12;100195.00;4459859;32;34879;-78
2023/09/08 03:28:56;;;;;;;3.15;1.52;;;;;;;18.51;60.98;100201.19;4477381;32;34289;-79
2023/09/08 03:31:27;;;;;;;2.62;1.58;;;;;;;18.53;60.94;100199.31;4470402;32;33698;-78
2023/09/08 03:33:57;;;;;;;3.33;1.67;;;;;;;18.43;61.32;100197.97;4464457;32;33771;-78
2023/09/08 03:36:26;;;;;;;4.90;1.58;;;;;;;18.52;60.98;100195.84;4464854;32;33725;-78
2023/09/08 03:38:57;;;;;;;3.05;1.70;;;;;;;18.37;61.69;100200.84;4469927;32;34494;-78
2023/09/08 03:41:28;;;;;;;2.42;1.40;;;;;;;18.32;61.85;100199.22;4472294;32;34585;-79
2023/09/08 03:43:57;;;;;;;2.97;1.58;;;;;;;18.38;61.91;100197.28;4476995;32;33570;-79
2023/09/08 03:46:26;;;;;;;3.65;1.58;;;;;;;18.43;62.09;100197.97;4472934;32;34232;-79
2023/09/08 03:49:00;;;;;;;2.10;1.30;;;;;;;18.46;61.90;100201.34;4470327;32;33775;-78
2023/09/08 03:51:29;;;;;;;3.58;1.30;;;;;;;18.34;62.27;100192.16;4478489;32;33720;-80
2023/09/08 03:53:58;;;;;;;2.20;1.50;;;;;;;18.44;62.09;100194.44;4461823;32;33818;-79
2023/09/08 03:56:31;;;;;;;3.33;1.60;;;;;;;18.44;62.28;100197.06;4461527;32;33254;-79
2023/09/08 03:59:00;;;;;;;4.10;1.80;;;;;;;18.29;62.74;100199.34;4461407;32;34664;-77
2023/09/08 04:01:28;;;;;;;3.62;1.70;;;;;;;18.45;62.22;100199.63;4467516;32;33620;-79
2023/09/08 04:03:58;;;;;;;2.78;1.40;;;;;;;18.43;62.58;100206.69;4461863;32;33482;-79
2023/09/08 04:06:28;;;;;;;3.47;1.58;;;;;;;18.37;62.70;100203.47;4462112;32;33501;-78
2023/09/08 04:08:57;;;;;;;3.70;1.85;;;;;;;18.33;62.96;100206.19;4474320;32;34455;-78
2023/09/08 04:11:27;;;;;;;2.53;1.55;;;;;;;18.51;62.52;100204.66;4461668;32;34912;-78
2023/09/08 04:13:56;;;;;;;2.67;1.52;;;;;;;18.40;62.79;100204.19;4467523;32;33700;-78
2023/09/08 04:16:25;;;;;;;3.75;1.80;;;;;;;18.41;62.86;100212.91;4460994;32;33453;-78
2023/09/08 04:18:54;;;;;;;2.47;1.55;;;;;;;18.37;63.10;100203.47;4468938;32;33823;-78
2023/09/08 04:21:24;;;;;;;4.55;2.28;;;;;;;18.29;63.34;100198.47;4466024;32;34245;-78
2023/09/08 04:23:53;;;;;;;2.60;1.67;;;;;;;18.33;63.32;100202.69;4469072;32;34613;-79
2023/09/08 04:26:22;;;;;;;3.65;1.90;;;;;;;18.37;63.00;100200.84;4464377;32;33449;-80
2023/09/08 04:28:52;;;;;;;2.37;1.40;;;;;;;18.49;62.96;100210.88;4464651;32;32379;-78
2023/09/08 04:31:21;;;;;;;3.73;1.90;;;;;;;18.32;63.49;100203.63;4461905;32;34287;-79
2023/09/08 04:33:53;;;;;;;3.20;1.77;;;;;;;18.37;63.27;100206.09;4469235;32;34393;-78
2023/09/08 04:36:22;;;;;;;4.78;1.75;;;;;;;18.43;63.45;100217.19;4467384;32;32184;-79
2023/09/08 04:38:51;;;;;;;3.80;1.70;;;;;;;18.52;63.09;100213.37;4462355;32;33424;-79
2023/09/08 04:41:20;;;;;;;3.15;1.73;;;;;;;18.51;63.29;100203.81;4461723;32;33564;-78
2023/09/08 04:43:48;;;;;;;3.17;1.60;;;;;;;18.46;63.51;100208.34;4469792;32;33447;-78
2023/09/08 04:46:19;;;;;;;2.83;1.77;;;;;;;18.58;63.44;100207.91;4482215;32;33709;-78
2023/09/08 04:48:48;;;;;;;4.15;1.95;;;;;;;18.41;63.96;100211.16;4477482;32;33027;-78
2023/09/08 04:51:16;;;;;;;2.70;1.50;;;;;;;18.50;63.92;100208.19;4461633;32;34387;-78
2023/09/08 04:53:46;;;;;;;4.72;1.58;;;;;;;18.53;63.88;100212.47;4461361;32;33558;-79
2023/09/08 04:56:15;;;;;;;2.70;1.92;;;;;;;18.66;63.74;100218.12;4467430;32;32916;-77
2023/09/08 04:58:44;;;;;;;3.17;1.33;;;;;;;18.67;64.08;100215.41;4467684;32;34711;-78
2023/09/08 05:01:13;;;;;;;2.47;1.37;;;;;;;18.82;63.83;100224.50;4466274;32;32573;-79
2023/09/08 05:03:44;;;;;;;4.35;2.00;;;;;;;18.82;63.89;100216.63;4459878;32;33071;-80
2023/09/08 05:06:14;;;;;;;3.85;1.80;;;;;;;18.69;64.54;100220.63;4461158;32;33072;-78
2023/09/08 05:08:43;;;;;;;4.05;1.85;;;;;;;18.82;64.62;100216.63;4467163;32;33967;-78
2023/09/08 05:11:13;;;;;;;3.35;1.45;;;;;;;18.96;64.03;100216.94;4460889;32;34084;-78
2023/09/08 05:13:42;;;;;;;2.72;1.45;;;;;;;18.92;64.47;100220.63;4460022;32;33963;-77
2023/09/08 05:16:13;;;;;;;5.00;2.72;;;;;;;18.97;64.28;100218.69;4463957;32;32761;-78
2023/09/08 05:18:44;;;;;;;5.12;2.45;;;;;;;19.16;63.91;100223.19;4468106;32;34754;-78
2023/09/08 05:21:14;;;;;;;2.47;1.63;;;;;;;19.20;63.92;100222.16;4477509;31;34133;-78
2023/09/08 05:23:43;;;;;;;3.10;1.73;;;;;;;19.17;64.34;100225.75;4471691;31;33446;-78
2023/09/08 05:26:12;;;;;;;4.57;1.83;;;;;;;19.09;64.45;100227.00;4481524;31;34217;-78
2023/09/08 05:28:43;;;;;;;4.15;2.20;;;;;;;19.52;61.94;100227.88;4476903;32;34727;-78
2023/09/08 05:31:13;;;;;;;4.65;2.00;;;;;;;19.73;61.36;100232.28;4481770;32;33650;-79
2023/09/08 05:33:42;;;;;;;4.00;2.00;;;;;;;19.61;61.84;100235.38;4475261;32;34203;-78
2023/09/08 05:36:12;;;;;;;5.00;2.72;;;;;;;19.60;62.18;100233.69;4465371;32;33522;-78
2023/09/08 05:38:44;;;;;;;3.28;2.05;;;;;;;19.79;61.47;100229.38;4461322;32;33501;-79
2023/09/08 05:41:13;;;;;;;2.85;1.55;;;;;;;19.77;60.96;100233.87;4466508;32;34060;-78
2023/09/08 05:43:42;;;;;;;4.45;2.30;;;;;;;19.86;60.75;100242.28;4439927;32;33488;-78
2023/09/08 05:46:12;;;;;;;3.25;2.03;;;;;;;20.15;59.76;100225.22;4444013;32;33084;-78
2023/09/08 05:48:42;;;;;;;4.60;2.60;;;;;;;20.24;59.21;100232.72;4434455;32;34456;-79
2023/09/08 05:51:12;;;;;;;6.72;2.25;;;;;;;20.07;59.05;100222.91;4431650;32;34917;-78
2023/09/08 05:53:42;;;;;;;2.55;1.40;;;;;;;20.49;58.48;100235.12;4441926;32;34120;-78
2023/09/08 05:56:11;;;;;;;4.80;2.10;;;;;;;20.74;57.73;100239.28;4430789;32;33558;-78
2023/09/08 05:58:41;;;;;;;3.10;2.37;;;;;;;20.66;58.37;100239.66;4434099;32;33899;-79
2023/09/08 06:01:10;;;;;;;4.35;2.00;;;;;;;20.84;57.69;100230.00;4443647;32;33795;-78
2023/09/08 06:03:40;;;;;;;3.10;1.67;;;;;;;21.28;56.39;100235.78;4450398;32;33742;-79
2023/09/08 06:06:09;;;;;;;4.20;1.93;;;;;;;21.31;56.55;100238.28;4434308;32;34191;-78
2023/09/08 06:08:39;;;;;;;3.75;2.08;;;;;;;20.89;57.84;100231.50;4444588;32;34687;-78
2023/09/08 06:11:09;;;;;;;3.90;2.12;;;;;;;21.24;56.92;100231.59;4444727;32;33339;-78
2023/09/08 06:13:37;;;;;;;3.28;2.10;;;;;;;21.16;57.27;100228.47;4444134;32;35339;-78
2023/09/08 06:16:08;;;;;;;4.35;2.10;;;;;;;21.38;56.86;100240.59;4447556;32;34603;-79
2023/09/08 06:18:39;;;;;;;2.95;1.67;;;;;;;21.44;56.51;100241.19;4444243;32;33591;-78
2023/09/08 06:21:09;;;;;;;4.03;2.10;;;;;;;21.39;56.42;100243.22;4444475;32;34117;-79
2023/09/08 06:23:40;;;;;;;3.55;2.00;;;;;;;21.54;55.48;100244.25;4435189;32;34005;-79
2023/09/08 06:26:08;;;;;;;5.40;2.47;;;;;;;21.86;54.89;100242.59;4450203;32;33258;-78
2023/09/08 06:28:39;;;;;;;5.60;2.05;;;;;;;22.02;54.46;100247.97;4441207;32;33737;-78
2023/09/08 06:31:08;;;;;;;3.97;2.33;;;;;;;21.83;55.03;100249.84;4436208;32;33286;-78
2023/09/08 06:33:38;;;;;;;2.90;1.80;;;;;;;22.18;53.64;100250.69;4435211;32;33413;-79
2023/09/08 06:36:07;;;;;;;3.22;1.77;;;;;;;21.91;53.74;100245.88;4432165;32;33395;-78
2023/09/08 06:38:36;;;;;;;5.45;1.83;;;;;;;21.83;53.50;100245.41;4434126;32;33610;-78
2023/09/08 06:41:11;;;;;;;2.92;1.80;;;;;;;22.37;52.10;100243.50;4429990;32;34027;-78
2023/09/08 06:43:40;;;;;;;2.92;1.85;;;;;;;22.17;52.04;100249.81;4466002;32;33471;-79
2023/09/08 06:46:09;;;;;;;3.47;1.90;;;;;;;22.43;50.71;100241.47;4460631;32;32940;-78
2023/09/08 06:48:39;;;;;;;4.90;1.70;;;;;;;22.34;51.24;100245.44;4464318;32;33395;-78
2023/09/08 06:51:08;;;;;;;3.55;1.98;;;;;;;22.20;50.79;100248.81;4466001;32;33711;-78
2023/09/08 06:53:38;;;;;;;5.37;1.62;;;;;;;22.28;51.32;100248.44;4466453;32;33045;-79
2023/09/08 06:56:07;;;;;;;3.53;2.00;;;;;;;22.32;50.93;100244.69;4471485;32;34119;-78
2023/09/08 06:58:37;;;;;;;2.17;1.50;;;;;;;22.84;50.14;100255.09;4464383;32;34720;-79
2023/09/08 07:01:06;;;;;;;2.77;1.87;;;;;;;22.48;50.61;100248.22;4468333;32;35226;-79
2023/09/08 07:03:37;;;;;;;3.85;2.10;;;;;;;22.62;49.39;100241.34;4469133;32;33450;-78
2023/09/08 07:06:07;;;;;;;2.40;1.50;;;;;;;22.41;50.06;100243.34;4464765;32;33189;-79
2023/09/08 07:08:36;;;;;;;3.28;1.33;;;;;;;22.98;49.04;100249.06;4466301;32;33131;-79
2023/09/08 07:11:05;;;;;;;2.92;1.42;;;;;;;23.31;48.67;100250.75;4473363;32;33560;-78
2023/09/08 07:13:34;;;;;;;2.67;1.70;;;;;;;23.09;48.90;100253.75;4468578;32;34419;-78
2023/09/08 07:16:05;;;;;;;2.85;1.42;;;;;;;23.24;49.35;100249.38;4466588;32;33222;-78
2023/09/08 07:18:35;;;;;;;4.10;1.77;;;;;;;23.04;49.26;100242.56;4465268;32;33819;-79
2023/09/08 07:21:06;;;;;;;3.33;1.73;;;;;;;23.39;48.90;100244.06;4471110;31;33819;-79
2023/09/08 07:23:36;;;;;;;3.45;1.67;;;;;;;23.34;48.37;100242.62;4474699;32;33641;-78
2023/09/08 07:26:06;;;;;;;;;;;;;;;23.27;48.60;100242.12;4463085;32;34039;-79
2023/09/08 07:28:35;;;;;;;2.95;1.60;;;;;;;23.55;48.27;100240.53;4466384;32;34701;-79
2023/09/08 07:31:08;;;;;;;3.50;1.75;;;;;;;23.59;47.82;100237.63;4467144;32;33853;-79
2023/09/08 07:33:38;;;;;;;3.35;1.33;;;;;;;23.64;48.17;100237.34;4466630;32;34331;-78
2023/09/08 07:36:08;;;;;;;5.45;1.60;;;;;;;23.78;46.90;100232.12;4470051;32;33802;-77
2023/09/08 07:38:37;;;;;;;3.17;1.62;;;;;;;23.92;47.20;100225.12;4470615;32;33349;-78
2023/09/08 07:41:06;;;;;;;3.30;1.92;;;;;;;23.58;47.24;100225.31;4461200;32;34457;-79
2023/09/08 07:43:40;;;;;;;3.15;1.37;;;;;;;23.90;46.37;100227.03;4461522;32;34111;-79
2023/09/08 07:46:11;;;;;;;2.37;1.30;;;;;;;23.76;47.08;100220.75;4480006;32;33015;-78
2023/09/08 07:48:40;;;;;;;5.78;1.90;;;;;;;23.66;48.24;100224.88;4466723;32;33913;-78
2023/09/08 07:51:08;;;;;;;4.00;1.70;;;;;;;23.66;47.52;100222.22;4470006;32;33177;-79
2023/09/08 07:53:40;;;;;;;2.30;1.42;;;;;;;23.91;47.88;100223.44;4470169;32;32579;-78
2023/09/08 07:56:09;;;;;;;3.10;1.50;;;;;;;23.87;47.39;100222.75;4475561;32;33709;-79
2023/09/08 07:58:39;;;;;;;7.32;2.92;;;;;;;24.17;46.47;100225.34;4471290;32;34745;-79
2023/09/08 08:01:08;;;;;;;5.18;1.80;;;;;;;24.17;46.73;100228.00;4467514;32;34457;-79
2023/09/08 08:03:38;;;;;;;4.30;1.40;;;;;;;24.25;46.72;100223.06;4466308;32;33685;-78
2023/09/08 08:06:07;;;;;;;2.47;1.55;;;;;;;24.07;46.29;100226.87;4467368;32;32447;-79
2023/09/08 08:19:50;;;;;;;6.72;2.67;;;;;;;24.23;46.95;100218.81;4472984;32;33471;-79
2023/09/08 08:22:18;;;;;;;4.77;1.87;;;;;;;24.12;47.19;100221.28;4473071;31;33579;-78
2023/09/08 08:24:47;;;;;;;3.20;1.30;;;;;;;24.44;46.41;100222.78;4477660;32;33484;-78
2023/09/08 08:27:16;;;;;;;4.43;2.10;;;;;;;24.45;46.36;100226.28;4467109;32;33999;-79
2023/09/08 08:29:45;;;;;;;3.47;1.70;;;;;;;24.38;46.21;100223.19;4463927;32;33021;-78
2023/09/08 08:32:14;;;;;;;2.25;1.08;;;;;;;24.35;46.19;100220.69;4466075;32;34791;-78
2023/09/08 08:34:43;;;;;;;2.83;1.50;;;;;;;24.65;45.54;100217.13;4471823;32;34002;-78
2023/09/08 08:37:14;;;;;;;2.17;1.35;;;;;;;24.86;44.85;100223.72;4464926;32;34441;-78
2023/09/08 08:39:43;;;;;;;3.15;1.55;;;;;;;24.87;44.88;100211.31;4468499;32;32703;-79
2023/09/08 08:42:11;;;;;;;6.45;1.85;;;;;;;24.86;45.36;100209.56;4469765;32;34643;-78
2023/09/08 08:44:41;;;;;;;7.28;1.80;;;;;;;24.83;45.14;100209.78;4470490;32;34077;-78
2023/09/08 08:47:12;;;;;;;3.25;1.58;;;;;;;24.87;45.03;100200.69;4475739;32;33866;-78
2023/09/08 08:49:45;;;;;;;4.53;1.83;;;;;;;25.08;45.40;100212.56;4465299;32;33375;-79
2023/09/08 08:52:17;;;;;;;3.62;1.95;;;;;;;25.21;45.20;100204.66;4469861;32;34301;-79
2023/09/08 08:54:46;;;;;;;7.68;2.65;;;;;;;25.47;43.93;100210.06;4472781;32;33719;-78
2023/09/08 08:57:16;;;;;;;5.15;2.55;;;;;;;25.34;44.21;100213.50;4474508;32;34006;-78
2023/09/08 08:59:46;;;;;;;4.72;2.90;;;;;;;25.58;43.47;100209.34;4472622;32;33075;-78
2023/09/08 09:02:15;;;;;;;2.78;1.58;;;;;;;25.55;43.37;100211.25;4472498;32;33274;-78
2023/09/08 09:04:45;;;;;;;3.53;1.75;;;;;;;25.34;44.35;100213.50;4470877;32;34541;-78
2023/09/08 09:07:19;;;;;;;4.07;1.55;;;;;;;25.68;43.06;100205.09;4470590;32;34432;-78
2023/09/08 09:09:48;;;;;;;3.20;1.52;;;;;;;25.72;43.12;100201.28;4478807;32;33137;-78
2023/09/08 09:12:17;;;;;;;3.35;1.33;;;;;;;25.80;43.75;100209.56;4470614;32;33677;-78
2023/09/08 09:14:47;;;;;;;4.75;1.65;;;;;;;25.57;42.99;100199.69;4469032;32;34604;-79
2023/09/08 09:17:16;;;;;;;3.37;1.48;;;;;;;26.01;42.86;100201.12;4471242;32;33538;-78
2023/09/08 09:19:45;;;;;;;3.30;1.65;;;;;;;25.86;42.60;100200.38;4478397;32;33545;-79
2023/09/08 09:22:14;;;;;;;4.03;1.67;;;;;;;25.82;43.15;100197.03;4471616;32;33453;-78
2023/09/08 09:24:44;;;;;;;3.03;1.55;;;;;;;26.18;42.82;100195.47;4471036;32;33841;-78
2023/09/08 09:27:13;;;;;;;3.40;1.77;;;;;;;25.79;43.19;100194.59;4468796;32;32990;-78
2023/09/08 09:29:46;;;;;;;2.97;1.58;;;;;;;26.27;41.55;100186.84;4471956;32;33233;-78
2023/09/08 09:32:16;;;;;;;3.28;1.60;;;;;;;26.33;42.00;100185.53;4474410;32;33565;-78
2023/09/08 09:34:50;;;;;;;3.47;2.05;;;;;;;26.45;42.08;100194.47;4469596;32;34554;-78
2023/09/08 09:37:19;;;;;;;3.90;1.77;;;;;;;26.49;42.05;100190.63;4473606;32;33373;-78
2023/09/08 09:39:51;;;;;;;5.33;1.80;;;;;;;26.52;41.61;100185.94;4471354;32;33233;-79
2023/09/08 09:42:20;;;;;;;3.05;1.35;;;;;;;26.51;41.81;100189.56;4478932;32;34253;-78
2023/09/08 09:44:51;;;;;;;3.05;1.35;;;;;;;26.43;41.77;100185.75;4467087;32;35140;-79
2023/09/08 09:47:20;;;;;;;4.25;1.55;;;;;;;26.79;40.98;100185.78;4466983;32;33809;-79
2023/09/08 09:49:49;;;;;;;2.45;1.40;;;;;;;26.85;41.92;100188.97;4469554;32;33068;-78
2023/09/08 09:52:22;;;;;;;2.55;1.52;;;;;;;26.83;40.94;100185.56;4466275;32;33666;-78
2023/09/08 09:54:56;;;;;;;3.28;1.42;;;;;;;27.24;40.89;100186.03;4474910;32;33732;-79
2023/09/08 09:57:26;;;;;;;3.12;1.48;;;;;;;27.11;40.64;100185.22;4469119;32;33621;-78
2023/09/08 09:59:58;;;;;;;3.45;1.60;;;;;;;26.73;40.38;100182.72;4469552;32;33893;-79
2023/09/08 10:02:27;;;;;;;4.30;2.10;;;;;;;27.16;39.94;100183.06;4469802;32;33958;-79
2023/09/08 10:04:56;;;;;;;3.47;1.92;;;;;;;27.37;39.29;100193.09;4478478;32;34843;-78
2023/09/08 10:07:26;;;;;;;3.33;1.83;;;;;;;27.10;39.67;100182.66;4477648;32;34358;-78
2023/09/08 10:09:56;;;;;;;2.95;1.23;;;;;;;27.36;39.22;100180.75;4473050;32;33147;-79
2023/09/08 10:12:31;;;;;;;2.60;1.58;;;;;;;27.37;38.15;100179.78;4469743;32;33148;-78
2023/09/08 10:15:01;;;;;;;3.42;1.48;;;;;;;26.92;38.86;100187.56;4471505;32;33901;-78
2023/09/08 10:17:31;;;;;;;2.78;1.30;;;;;;;26.51;39.86;100186.06;4476591;32;33582;-79
2023/09/08 10:20:08;;;;;;;4.78;1.67;;;;;;;26.87;40.42;100181.69;4471409;32;33453;-79
2023/09/08 10:22:39;;;;;;;3.17;1.80;;;;;;;27.14;39.47;100182.34;4469774;31;32922;-78
2023/09/08 10:25:10;;;;;;;;;;;;;;;26.75;40.57;100181.66;4471434;32;33476;-79
2023/09/08 10:27:39;;;;;;;3.83;1.60;;;;;;;27.27;40.33;100179.63;4469767;32;33907;-79
2023/09/08 10:30:09;;;;;;;3.45;1.80;;;;;;;27.04;39.43;100176.00;4478172;32;33169;-78
2023/09/08 10:32:38;;;;;;;3.42;1.33;;;;;;;26.71;40.46;100179.31;4470152;32;34461;-79
2023/09/08 10:35:07;;;;;;;3.20;1.60;;;;;;;27.01;38.34;100173.53;4466421;32;33636;-78
2023/09/08 10:37:40;;;;;;;3.22;1.70;;;;;;;27.38;39.84;100171.69;4466613;32;33995;-79
2023/09/08 10:40:23;;;;;;;2.78;1.35;;;;;;;27.43;39.44;100161.53;4472120;32;33112;-79
2023/09/08 10:43:07;;;;;;;3.67;1.77;;;;;;;27.52;39.61;100161.78;4468168;32;33678;-79
2023/09/08 10:45:36;;;;;;;3.70;1.65;;;;;;;27.51;39.24;100160.09;4461749;32;33374;-78
2023/09/08 10:48:07;;;;;;;3.47;1.40;;;;;;;27.87;38.89;100153.75;4465812;32;34333;-78
2023/09/08 10:50:36;;;;;;;;;;;;;;;27.59;38.12;100153.22;4467968;32;33306;-79
2023/09/08 10:53:11;;;;;;;2.53;1.27;;;;;;;27.66;37.96;100162.41;4468448;32;36317;-78
2023/09/08 10:55:47;;;;;;;2.40;1.40;;;;;;;27.97;37.91;100156.56;4470591;32;33903;-79
2023/09/08 10:58:32;;;;;;;4.05;1.90;;;;;;;27.53;37.83;100158.16;4468159;32;33894;-78
2023/09/08 11:01:04;;;;;;;3.60;1.75;;;;;;;28.01;36.62;100161.53;4468789;32;33635;-79
2023/09/08 11:03:47;;;;;;;4.45;1.50;;;;;;;28.12;36.51;100146.47;4469997;32;33633;-78
2023/09/08 11:06:18;;;;;;;3.28;1.58;;;;;;;28.38;36.49;100150.59;4470679;32;33472;-78
2023/09/08 11:08:48;;;;;;;3.55;1.85;;;;;;;28.09;36.63;100147.56;4474758;32;33811;-79
2023/09/08 11:11:19;;;;;;;3.20;1.55;;;;;;;28.28;35.63;100141.63;4470418;32;35512;-78
2023/09/08 11:13:48;;;;;;;2.28;1.00;;;;;;;28.73;35.61;100144.25;4469978;32;33130;-79
2023/09/08 11:16:21;;;;;;;3.47;1.25;;;;;;;28.65;36.23;100138.69;4469654;32;33691;-79
2023/09/08 11:18:52;;;;;;;3.53;1.83;;;;;;;28.48;35.73;100134.72;4474222;32;34150;-78
2023/09/08 11:21:20;;;;;;;3.15;1.37;;;;;;;28.06;35.68;100138.00;4472477;32;33435;-80
2023/09/08 11:23:49;;;;;;;3.15;1.25;;;;;;;28.33;35.56;100139.44;4469006;32;33947;-79
2023/09/08 11:26:20;;;;;;;3.15;1.25;;;;;;;28.64;34.29;100139.66;4469886;32;33783;-79
2023/09/08 11:28:49;;;;;;;2.50;1.48;;;;;;;28.67;33.64;100137.56;4471336;32;34485;-78
2023/09/08 11:31:17;;;;;;;1.92;0.90;;;;;;;28.63;34.01;100122.81;4478448;32;32852;-78
2023/09/08 11:33:49;;;;;;;3.15;1.05;;;;;;;28.81;33.75;100119.59;4471814;32;34342;-78
2023/09/08 11:36:19;;;;;;;2.15;1.15;;;;;;;28.03;33.48;100121.41;4469583;32;34086;-79
2023/09/08 11:38:49;;;;;;;2.65;1.48;;;;;;;28.18;33.33;100127.34;4471793;32;33516;-78
2023/09/08 11:41:22;;;;;;;2.58;1.33;;;;;;;28.74;32.17;100129.06;4472395;32;32974;-79
2023/09/08 11:43:53;;;;;;;3.47;1.77;;;;;;;28.81;31.92;100128.44;4464687;32;35872;-78
2023/09/08 11:46:22;;;;;;;;;;;;;;;28.94;30.80;100121.09;4464114;32;33585;-78
2023/09/08 11:48:51;;;;;;;3.10;1.45;;;;;;;28.70;32.77;100120.47;4470712;32;34792;-78
2023/09/08 11:51:23;;;;;;;3.37;1.90;;;;;;;28.68;31.83;100125.94;4469496;32;33075;-78